createdAt,value
2023-04-16T00:02:42.490Z,29.4
2023-04-16T00:08:36.679Z,28.6
2023-04-16T00:20:04.277Z,27.1
2023-04-16T00:25:55.897Z,26.4
2023-04-16T00:31:31.627Z,26.6
2023-04-16T00:37:07.589Z,31.8
2023-04-16T00:42:59.742Z,31
2023-04-16T00:48:51.670Z,29.8
2023-04-16T00:54:28.316Z,28.9
2023-04-16T01:00:04.665Z,28.2
2023-04-16T01:05:27.913Z,27.4
2023-04-16T01:11:04.409Z,26.8
2023-04-16T01:16:40.850Z,26.1
2023-04-16T01:22:32.579Z,26.8
2023-04-16T01:27:52.797Z,31.9
2023-04-16T01:33:29.749Z,30.9
2023-04-16T01:39:21.221Z,29.8
2023-04-16T01:44:56.807Z,28.9
2023-04-16T01:50:49.275Z,28.2
2023-04-16T01:56:25.046Z,27.4
2023-04-16T02:02:17.396Z,26.7
2023-04-16T02:07:54.605Z,26
2023-04-16T02:13:30.437Z,27
2023-04-16T02:19:22.325Z,31.8
2023-04-16T02:25:13.581Z,30.8
2023-04-16T02:31:04.439Z,29.4
2023-04-16T02:36:56.047Z,28.8
2023-04-16T02:42:47.553Z,28.1
2023-04-16T02:48:39.936Z,27.3
2023-04-16T02:54:30.931Z,26.6
2023-04-16T03:00:22.640Z,25.9
2023-04-16T03:05:59.166Z,28.8
2023-04-16T03:11:50.713Z,32.4
2023-04-16T03:17:27.060Z,30.4
2023-04-16T03:23:19.053Z,29.5
2023-04-16T03:29:10.511Z,28.7
2023-04-16T03:35:02.606Z,27.9
2023-04-16T03:40:54.167Z,27.1
2023-04-16T03:46:14.512Z,26.4
2023-04-16T03:52:06.655Z,25.8
2023-04-16T03:57:42.656Z,29.1
2023-04-16T04:03:35.862Z,32.5
2023-04-16T04:09:13.392Z,30.4
2023-04-16T04:15:04.875Z,29.5
2023-04-16T04:21:07.025Z,28.7
2023-04-16T04:32:19.507Z,27.2
2023-04-16T04:38:11.128Z,26.4
2023-04-16T04:44:02.557Z,25.8
2023-04-16T04:49:56.272Z,30.4
2023-04-16T04:55:31.862Z,31.8
2023-04-16T05:01:28.802Z,30.3
2023-04-16T05:07:21.103Z,29.4
2023-04-16T05:12:57.341Z,28.6
2023-04-16T05:24:26.146Z,27.1
2023-04-16T05:30:18.250Z,26.3
2023-04-16T05:36:10.686Z,26.1
2023-04-16T05:42:01.981Z,31.9
2023-04-16T05:47:41.137Z,31.3
2023-04-16T05:53:32.844Z,30.3
2023-04-16T05:59:24.477Z,29.4
2023-04-16T06:05:01.918Z,28.6
2023-04-16T06:16:16.891Z,27.1
2023-04-16T06:22:08.065Z,26.4
2023-04-16T06:28:02.456Z,25.7
2023-04-16T06:33:49.740Z,30.8
2023-04-16T06:39:41.513Z,31.9
2023-04-16T06:45:17.788Z,30.6
2023-04-16T06:50:53.452Z,29.8
2023-04-16T06:56:30.572Z,28.9
2023-04-16T07:02:22.980Z,28.2
2023-04-16T07:08:15.590Z,27.4
2023-04-16T07:14:07.486Z,26.6
2023-04-16T07:20:00.516Z,26
2023-04-16T07:25:51.286Z,29.9
2023-04-16T07:31:42.269Z,32.3
2023-04-16T07:37:04.177Z,30.8
2023-04-16T07:42:56.740Z,29.9
2023-04-16T07:49:01.439Z,29.1
2023-04-16T07:54:52.517Z,28.3
2023-04-16T08:00:28.513Z,27.5
2023-04-16T08:06:22.944Z,26.8
2023-04-16T08:12:15.119Z,26.1
2023-04-16T08:18:06.840Z,30.3
2023-04-16T08:23:58.954Z,32.3
2023-04-16T08:30:03.511Z,30.6
2023-04-16T08:35:55.799Z,29.6
2023-04-16T08:41:47.610Z,28.8
2023-04-16T08:47:24.155Z,28.1
2023-04-16T08:53:16.212Z,27.3
2023-04-16T08:59:08.244Z,26.6
2023-04-16T09:05:02.460Z,29.4
2023-04-16T09:10:53.560Z,32.5
2023-04-16T09:16:45.056Z,30.7
2023-04-16T09:22:37.364Z,29.8
2023-04-16T09:28:15.430Z,28.9
2023-04-16T09:34:07.966Z,28.2
2023-04-16T09:39:45.809Z,27.4
2023-04-16T09:45:23.663Z,26.7
2023-04-16T09:51:19.503Z,30.1
2023-04-16T09:57:11.031Z,32.3
2023-04-16T10:03:24.410Z,30.5
2023-04-16T10:09:17.348Z,29.5
2023-04-16T10:15:08.512Z,28.7
2023-04-16T10:21:00.379Z,27.9
2023-04-16T10:26:52.261Z,27.2
2023-04-16T10:32:29.418Z,26.5
2023-04-16T10:38:33.596Z,25.9
2023-04-16T10:44:27.198Z,25.3
2023-04-16T10:50:29.973Z,24.8
2023-04-16T10:56:21.491Z,24.4
2023-04-16T11:01:59.001Z,24
2023-04-16T11:07:53.171Z,23.7
2023-04-16T11:13:52.958Z,23.4
2023-04-16T11:19:58.214Z,23.2
2023-04-16T11:25:55.589Z,23
2023-04-16T11:31:46.464Z,22.8
2023-04-16T11:37:37.616Z,22.6
2023-04-16T11:43:30.890Z,22.5
2023-04-16T11:49:34.162Z,22.4
2023-04-16T11:55:09.945Z,22.3
2023-04-16T12:01:30.619Z,22.2
2023-04-16T12:07:23.773Z,22.1
2023-04-16T12:13:15.497Z,22
2023-04-16T12:18:51.547Z,21.9
2023-04-16T12:24:27.460Z,21.8
2023-04-16T12:30:06.132Z,21.8
2023-04-16T12:36:11.644Z,21.8
2023-04-16T12:42:01.810Z,21.7
2023-04-16T12:47:53.620Z,21.6
2023-04-16T12:53:46.856Z,21.6
2023-04-16T12:59:38.648Z,21.6
2023-04-16T13:05:33.060Z,21.5
2023-04-16T13:11:25.591Z,21.5
2023-04-16T13:17:17.342Z,21.4
2023-04-16T13:23:09.785Z,21.4
2023-04-16T13:29:02.282Z,21.3
2023-04-16T13:34:57.016Z,21.3
2023-04-16T13:40:36.112Z,21.3
2023-04-16T13:46:12.949Z,21.3
2023-04-16T13:51:49.538Z,21.3
2023-04-16T13:57:42.232Z,21.2
2023-04-16T14:19:07.015Z,21.1
2023-04-16T14:24:58.060Z,21.1
2023-04-16T14:30:50.170Z,21.1
2023-04-16T14:36:42.334Z,20.9
2023-04-16T14:42:18.938Z,21
2023-04-16T14:48:10.379Z,20.9
2023-04-16T19:00:56.387Z,20.3
2023-04-16T19:06:33.012Z,20.3
2023-04-16T19:12:23.170Z,20.3
2023-04-16T19:18:03.048Z,20.3
2023-04-16T19:23:37.775Z,20.3
2023-04-16T19:29:30.982Z,20.3
2023-04-16T19:35:24.726Z,20.2
2023-04-16T19:41:15.904Z,20.3
2023-04-16T19:47:06.269Z,20.3
2023-04-16T19:52:58.917Z,20.2
2023-04-16T19:58:49.252Z,20.3
2023-04-16T20:04:40.977Z,20.3
2023-04-16T20:10:33.785Z,20.2
2023-04-16T20:16:24.091Z,20.2
2023-04-16T20:22:21.010Z,27.7
2023-04-16T20:28:13.781Z,32.5
2023-04-16T20:34:06.767Z,34.3
2023-04-16T20:40:00.228Z,32.1
2023-04-16T20:45:52.966Z,30.6
2023-04-16T20:51:29.363Z,34
2023-04-16T20:57:21.248Z,32
2023-04-16T21:03:14.880Z,30.4
2023-04-16T21:09:06.982Z,29.3
2023-04-16T21:14:41.942Z,33.6
2023-04-16T21:20:03.732Z,32.4
2023-04-16T21:25:39.417Z,30.6
2023-04-16T21:31:15.794Z,29.7
2023-04-16T21:37:08.269Z,28.6
2023-04-16T21:42:28.713Z,33.4
2023-04-16T21:48:05.480Z,32.4
2023-04-16T21:53:58.621Z,30.6
2023-04-16T21:59:34.492Z,29.6
2023-04-16T22:05:28.023Z,28.8
2023-04-16T22:11:38.240Z,32.7
2023-04-16T22:17:44.779Z,32.6
2023-04-16T22:23:35.930Z,30.5
2023-04-16T22:29:28.630Z,29.6
2023-04-16T22:35:18.966Z,28.7
2023-04-16T22:41:10.262Z,32.1
2023-04-16T22:47:02.969Z,33.3
2023-04-16T22:52:53.338Z,30.8
2023-04-16T22:58:28.988Z,29.7
2023-04-16T23:04:23.064Z,28.9
2023-04-16T23:10:13.981Z,27.9
2023-04-16T23:15:49.410Z,33.4
2023-04-16T23:21:11.599Z,32
2023-04-16T23:26:32.004Z,30.4
2023-04-16T23:32:07.913Z,29.5
2023-04-16T23:38:00.316Z,28.8
2023-04-16T23:43:51.865Z,28
2023-04-16T23:49:12.239Z,33.5
2023-04-16T23:54:49.700Z,31.9
